Time;durP1;ratioP1;P1;durP2;ratioP2;P2;SDS_P1;SDS_P2;PMS_P1;PMS_P2;Temp;Humidity;BMP_temperature;BMP_pressure;BME280_temperature;BME280_humidity;BME280_pressure;Samples;Min_cycle;Max_cycle;Signal;HPM_P1;HPM_P2
2022/06/27 00:00:57;;;;;;;4.47;3.20;;;;;;;19.79;100.00;99995.98;1727786;83;20995;-61
2022/06/27 00:03:23;;;;;;;4.37;3.45;;;;;;;19.74;100.00;99998.89;1721618;81;20998;-60
2022/06/27 00:05:50;;;;;;;4.72;2.90;;;;;;;19.70;100.00;100000.67;1715134;83;20971;-61
2022/06/27 00:08:17;;;;;;;4.35;3.35;;;;;;;19.77;100.00;100001.00;1720352;83;21036;-61
2022/06/27 00:10:44;;;;;;;5.03;3.37;;;;;;;19.89;100.00;99994.25;1728038;83;21054;-61
2022/06/27 00:13:10;;;;;;;5.10;3.42;;;;;;;19.93;100.00;100001.31;1718473;83;21601;-61
2022/06/27 00:15:38;;;;;;;4.62;3.05;;;;;;;19.92;100.00;99996.36;1727677;82;21588;-61
2022/06/27 00:18:05;;;;;;;4.42;3.22;;;;;;;19.98;100.00;99989.52;1726491;82;21376;-61
2022/06/27 00:20:31;;;;;;;3.92;3.05;;;;;;;20.07;100.00;99991.70;1727844;83;21078;-62
2022/06/27 00:22:58;;;;;;;5.67;2.90;;;;;;;20.13;100.00;99993.72;1722046;82;21118;-61
2022/06/27 00:25:26;;;;;;;4.62;3.10;;;;;;;20.11;100.00;99994.63;1724931;82;21031;-62
2022/06/27 00:27:52;;;;;;;5.22;3.15;;;;;;;20.06;100.00;99989.26;1719401;83;21134;-62
2022/06/27 00:30:20;;;;;;;5.97;3.30;;;;;;;20.04;100.00;99995.13;1706262;82;21058;-61
2022/06/27 00:32:48;;;;;;;4.05;3.00;;;;;;;20.07;100.00;99990.33;1723986;83;21023;-61
2022/06/27 00:35:14;;;;;;;4.50;3.10;;;;;;;20.10;100.00;99994.37;1727858;83;21497;-61
2022/06/27 00:37:41;;;;;;;5.28;3.37;;;;;;;20.08;100.00;99993.91;1701678;83;21078;-61
2022/06/27 00:40:07;;;;;;;5.40;3.20;;;;;;;20.05;100.00;100007.00;1708760;83;21093;-61
2022/06/27 00:42:35;;;;;;;4.55;3.37;;;;;;;20.02;100.00;100010.39;1698712;84;21460;-61
2022/06/27 00:45:03;;;;;;;5.65;3.50;;;;;;;20.00;100.00;100007.16;1696978;83;21370;-61
2022/06/27 00:47:29;;;;;;;4.15;3.20;;;;;;;19.94;100.00;100011.23;1689614;83;21037;-61
2022/06/27 00:49:56;;;;;;;5.90;3.37;;;;;;;19.86;100.00;100010.11;1699122;83;20984;-62
2022/06/27 00:52:22;;;;;;;4.70;3.33;;;;;;;19.78;100.00;100013.68;1708132;83;21016;-62
2022/06/27 00:54:49;;;;;;;5.33;3.45;;;;;;;19.76;100.00;100006.30;1698390;84;21075;-62
2022/06/27 00:57:16;;;;;;;4.47;3.22;;;;;;;19.73;100.00;100013.27;1707024;83;21757;-61
2022/06/27 00:59:43;;;;;;;5.33;3.20;;;;;;;19.70;100.00;100011.16;1700424;83;21566;-61
2022/06/27 01:02:10;;;;;;;3.85;3.20;;;;;;;19.62;100.00;100014.76;1704582;83;21015;-61
2022/06/27 01:04:37;;;;;;;4.53;3.27;;;;;;;19.54;100.00;100016.94;1699161;84;21596;-61
2022/06/27 01:07:06;;;;;;;3.62;3.08;;;;;;;19.49;100.00;100015.70;1703722;83;21019;-61
2022/06/27 01:09:34;;;;;;;5.00;3.00;;;;;;;19.49;100.00;100021.79;1696850;83;21011;-62
2022/06/27 01:12:03;;;;;;;7.05;3.47;;;;;;;19.48;100.00;100018.80;1698288;84;21035;-61
2022/06/27 01:14:30;;;;;;;5.40;3.40;;;;;;;19.46;100.00;100025.20;1696201;84;21059;-62
2022/06/27 01:16:57;;;;;;;6.62;3.75;;;;;;;19.47;100.00;100019.94;1702764;83;21059;-62
2022/06/27 01:19:24;;;;;;;5.47;3.50;;;;;;;19.48;100.00;100018.80;1696741;83;21163;-62
2022/06/27 01:21:55;;;;;;;4.83;3.65;;;;;;;19.46;100.00;100027.96;1704035;84;21028;-62
2022/06/27 01:24:25;;;;;;;4.62;3.35;;;;;;;19.44;100.00;100024.16;1699346;84;21110;-62
2022/06/27 01:26:52;;;;;;;6.00;3.50;;;;;;;19.37;100.00;100027.37;1701571;83;21652;-62
2022/06/27 01:29:20;;;;;;;5.75;3.70;;;;;;;19.32;100.00;100026.14;1704529;83;21072;-62
2022/06/27 01:31:48;;;;;;;3.75;3.30;;;;;;;19.30;100.00;100017.38;1698939;83;21082;-62
2022/06/27 01:34:14;;;;;;;6.00;3.72;;;;;;;19.31;100.00;100024.50;1697341;84;21107;-62
2022/06/27 01:36:43;;;;;;;4.42;3.60;;;;;;;19.28;100.00;100021.02;1700144;83;21020;-62
2022/06/27 01:39:23;;;;;;;5.12;3.80;;;;;;;19.29;100.00;100020.45;1690582;83;21064;-61
2022/06/27 01:41:53;;;;;;;5.65;3.80;;;;;;;19.29;100.00;100024.59;1710276;83;21015;-62
2022/06/27 01:44:24;;;;;;;4.20;3.65;;;;;;;19.22;100.00;100019.55;1691672;83;21036;-61
2022/06/27 01:46:57;;;;;;;4.95;3.62;;;;;;;19.15;100.00;100022.53;1712500;82;21050;-61
2022/06/27 01:49:24;;;;;;;5.12;3.90;;;;;;;19.08;100.00;100021.63;1692016;83;21053;-61
2022/06/27 01:51:51;;;;;;;5.20;3.70;;;;;;;18.99;100.00;100027.67;1713583;83;21098;-62
2022/06/27 01:54:20;;;;;;;5.67;3.50;;;;;;;18.89;100.00;100028.80;1695751;82;21035;-62
2022/06/27 01:56:46;;;;;;;6.55;3.70;;;;;;;18.80;100.00;100026.58;1708590;83;21067;-61
2022/06/27 01:59:14;;;;;;;5.37;3.52;;;;;;;18.74;100.00;100033.35;1715376;82;21018;-61
2022/06/27 02:01:42;;;;;;;4.75;3.65;;;;;;;18.69;100.00;100032.70;1691938;83;20934;-61
2022/06/27 02:04:09;;;;;;;6.10;4.00;;;;;;;18.59;100.00;100036.55;1689016;83;21063;-61
2022/06/27 02:06:38;;;;;;;6.20;4.10;;;;;;;18.49;100.00;100029.91;1698414;83;20978;-61
2022/06/27 02:09:09;;;;;;;5.92;4.25;;;;;;;18.39;100.00;100035.11;1714347;83;21091;-61
2022/06/27 02:11:39;;;;;;;5.40;4.28;;;;;;;18.31;100.00;100038.66;1714814;83;21588;-62
2022/06/27 02:14:07;;;;;;;5.15;4.17;;;;;;;18.28;100.00;100041.23;1705265;83;21070;-62
2022/06/27 02:16:35;;;;;;;6.58;4.55;;;;;;;18.28;100.00;100048.12;1713799;83;21009;-61
2022/06/27 02:19:01;;;;;;;5.65;4.35;;;;;;;18.31;100.00;100048.30;1714929;83;21034;-61
2022/06/27 02:21:31;;;;;;;7.05;4.00;;;;;;;18.36;100.00;100056.42;1703716;83;21082;-61
2022/06/27 02:23:59;;;;;;;5.62;4.00;;;;;;;18.43;100.00;100056.52;1703515;82;21142;-61
2022/06/27 02:26:28;;;;;;;5.58;4.00;;;;;;;18.50;100.00;100045.30;1713719;83;21067;-62
2022/06/27 02:28:55;;;;;;;8.08;3.62;;;;;;;18.56;100.00;100050.98;1714351;82;21082;-62
2022/06/27 02:31:22;;;;;;;6.55;4.12;;;;;;;18.62;100.00;100057.16;1716292;82;21044;-62
2022/06/27 02:33:50;;;;;;;5.53;3.98;;;;;;;18.71;100.00;100062.12;1701351;82;21083;-62
2022/06/27 02:36:21;;;;;;;5.20;4.10;;;;;;;18.79;100.00;100056.67;1682474;84;21087;-62
2022/06/27 02:38:50;;;;;;;7.10;4.25;;;;;;;18.85;100.00;100055.95;1716724;82;21044;-61
2022/06/27 02:41:19;;;;;;;5.00;3.80;;;;;;;18.91;100.00;100058.02;1693763;84;21510;-62
2022/06/27 02:43:49;;;;;;;5.90;4.00;;;;;;;18.93;100.00;100060.69;1704671;82;21598;-62
2022/06/27 02:46:15;;;;;;;8.33;4.37;;;;;;;18.90;100.00;100061.33;1719865;82;21688;-61
2022/06/27 02:48:45;;;;;;;6.92;4.65;;;;;;;18.86;100.00;100064.48;1710462;82;21096;-61
2022/06/27 02:51:15;;;;;;;8.23;4.97;;;;;;;18.83;100.00;100063.17;1657685;82;21055;-62
2022/06/27 02:54:04;;;;;;;6.30;4.22;;;;;;;18.79;100.00;100065.50;1697613;82;21115;-61
2022/06/27 02:56:39;;;;;;;10.38;4.78;;;;;;;18.78;100.00;100069.38;1719534;82;21047;-61
2022/06/27 02:59:21;;;;;;;6.42;4.42;;;;;;;18.77;100.00;100071.35;1726500;82;21019;-61
2022/06/27 03:01:49;;;;;;;6.65;4.40;;;;;;;18.78;100.00;100070.77;1723382;82;20987;-62
2022/06/27 03:04:17;;;;;;;7.15;4.80;;;;;;;18.79;100.00;100066.88;1720268;82;21429;-62
2022/06/27 03:06:46;;;;;;;7.78;5.30;;;;;;;18.79;100.00;100075.97;1717369;83;21523;-63
2022/06/27 03:09:13;;;;;;;5.60;4.80;;;;;;;18.84;100.00;100075.84;1699305;82;21510;-62
2022/06/27 03:11:41;;;;;;;6.72;5.70;;;;;;;18.92;100.00;100072.06;1710718;82;21013;-62
2022/06/27 03:14:08;;;;;;;8.60;5.05;;;;;;;19.00;100.00;100069.31;1722721;83;21037;-62
2022/06/27 03:16:36;;;;;;;7.97;5.03;;;;;;;19.17;100.00;100076.27;1720260;83;21027;-62
2022/06/27 03:19:03;;;;;;;5.95;4.67;;;;;;;19.40;100.00;100071.45;1696849;82;21047;-62
2022/06/27 03:21:30;;;;;;;7.25;4.87;;;;;;;19.62;100.00;100070.55;1710856;82;20954;-63
2022/06/27 03:24:01;;;;;;;7.42;5.20;;;;;;;19.80;100.00;100072.98;1693250;83;21134;-63
2022/06/27 03:26:29;;;;;;;7.03;5.50;;;;;;;20.03;100.00;100068.11;1708833;82;21478;-63
2022/06/27 03:28:56;;;;;;;7.62;5.00;;;;;;;20.30;100.00;100073.30;1695974;83;21573;-62
2022/06/27 03:31:23;;;;;;;7.08;5.10;;;;;;;20.58;100.00;100063.25;1718781;82;21686;-62
2022/06/27 03:33:50;;;;;;;6.25;4.83;;;;;;;20.76;100.00;100064.22;1723745;82;21113;-62
2022/06/27 03:36:22;;;;;;;7.75;5.22;;;;;;;20.93;100.00;100060.59;1713820;83;21025;-63
2022/06/27 03:38:49;;;;;;;6.45;4.92;;;;;;;21.12;100.00;100057.41;1713819;83;21123;-62
2022/06/27 03:41:16;;;;;;;7.58;5.47;;;;;;;21.34;100.00;100057.95;1707512;82;21021;-62
2022/06/27 03:43:42;;;;;;;8.35;5.47;;;;;;;21.56;100.00;100065.70;1718802;82;21054;-62
2022/06/27 03:46:10;;;;;;;6.62;4.80;;;;;;;21.79;100.00;100058.67;1715450;82;21001;-62
2022/06/27 03:51:42;;;;;;;6.50;4.17;;;;;;;22.11;100.00;100052.39;1677781;84;21100;-62
2022/06/27 03:54:09;;;;;;;5.45;4.28;;;;;;;22.30;100.00;100058.81;1715398;83;21597;-61
2022/06/27 03:56:36;;;;;;;5.97;4.62;;;;;;;22.41;100.00;100057.23;1714266;83;21029;-62
2022/06/27 03:59:02;;;;;;;6.50;4.47;;;;;;;22.50;100.00;100056.55;1691398;83;21635;-61
2022/06/27 04:01:29;;;;;;;6.58;4.50;;;;;;;22.60;100.00;100051.16;1702780;83;21036;-61
2022/06/27 04:03:55;;;;;;;6.17;4.20;;;;;;;22.69;100.00;100048.54;1715366;82;21123;-61
2022/06/27 04:06:22;;;;;;;6.95;4.12;;;;;;;22.89;100.00;100052.36;1697142;82;21028;-62
2022/06/27 04:08:49;;;;;;;7.65;3.90;;;;;;;23.05;100.00;100053.89;1698923;82;21903;-63
2022/06/27 04:11:15;;;;;;;5.97;4.20;;;;;;;23.21;100.00;100050.05;1693426;83;21009;-63
2022/06/27 04:13:44;;;;;;;7.33;4.67;;;;;;;23.38;100.00;100045.42;1709074;83;21127;-61
2022/06/27 04:16:14;;;;;;;4.60;3.37;;;;;;;23.52;100.00;100048.09;1640792;83;21004;-62
2022/06/27 04:18:58;;;;;;;4.05;3.10;;;;;;;23.68;100.00;100047.58;1706260;82;21060;-62
2022/06/27 04:21:42;;;;;;;5.33;2.92;;;;;;;23.93;100.00;100042.75;1704990;82;21019;-63
2022/06/27 04:24:10;;;;;;;3.55;2.77;;;;;;;24.17;100.00;100032.94;1715016;83;21051;-63
2022/06/27 04:26:38;;;;;;;4.83;2.70;;;;;;;24.32;100.00;100027.77;1715292;82;20976;-63
2022/06/27 04:29:05;;;;;;;3.45;2.75;;;;;;;24.35;100.00;100027.86;1697737;83;21519;-63
2022/06/27 04:31:31;;;;;;;3.47;2.30;;;;;;;24.39;100.00;100025.17;1710750;83;20967;-61
2022/06/27 04:33:58;;;;;;;5.72;2.42;;;;;;;24.55;100.00;100019.06;1714134;82;21032;-62
2022/06/27 04:36:25;;;;;;;4.00;2.55;;;;;;;24.81;100.00;100017.92;1711575;82;21016;-61
2022/06/27 04:38:53;;;;;;;3.30;2.45;;;;;;;25.14;100.00;100018.97;1685199;84;21080;-61
2022/06/27 04:41:37;;;;;;;5.67;2.58;;;;;;;25.52;100.00;100023.25;1606871;89;21498;-62
2022/06/27 04:44:04;;;;;;;6.10;2.45;;;;;;;25.84;100.00;100023.13;1673469;83;21574;-63
2022/06/27 04:46:31;;;;;;;3.45;2.27;;;;;;;25.93;100.00;100018.97;1713091;82;21034;-64
2022/06/27 04:49:17;;;;;;;5.37;2.08;;;;;;;25.92;100.00;100009.56;1716634;83;21073;-62
2022/06/27 04:51:44;;;;;;;4.92;2.50;;;;;;;26.00;100.00;100019.11;1703992;82;21058;-60
2022/06/27 04:54:12;;;;;;;3.67;2.40;;;;;;;25.94;100.00;100020.56;1687478;82;21095;-62
2022/06/27 04:56:44;;;;;;;3.85;2.15;;;;;;;25.77;100.00;100022.98;1708146;83;21072;-62
2022/06/27 04:59:07;;;;;;;4.92;2.33;;;;;;;25.63;100.00;100015.12;1709290;82;21117;-62
2022/06/27 05:01:36;;;;;;;3.83;2.40;;;;;;;25.52;100.00;100016.87;1715690;83;21036;-63
2022/06/27 05:04:04;;;;;;;4.58;2.37;;;;;;;25.39;100.00;100015.36;1703966;83;21115;-64
2022/06/27 05:06:33;;;;;;;6.55;2.30;;;;;;;25.42;100.00;100017.41;1708272;82;21074;-63
2022/06/27 05:09:00;;;;;;;4.03;2.02;;;;;;;25.55;100.00;100016.13;1702779;82;21147;-64
2022/06/27 05:11:28;;;;;;;3.83;2.25;;;;;;;25.69;100.00;100013.07;1703076;83;21412;-64
2022/06/27 05:13:55;;;;;;;5.15;2.33;;;;;;;25.79;100.00;100015.85;1693813;83;21604;-60
2022/06/27 05:16:32;;;;;;;3.52;2.20;;;;;;;25.82;100.00;100015.73;1712097;83;21044;-61
2022/06/27 05:19:00;;;;;;;3.30;2.40;;;;;;;25.83;100.00;100015.93;1712757;83;21126;-63
2022/06/27 05:21:27;;;;;;;6.42;2.83;;;;;;;25.95;100.00;100013.81;1716677;82;20950;-63
2022/06/27 05:23:53;;;;;;;4.75;2.77;;;;;;;26.33;100.00;100012.17;1691129;83;21073;-62
2022/06/27 05:26:20;;;;;;;5.58;3.08;;;;;;;26.63;100.00;100015.34;1715711;83;21028;-62
2022/06/27 05:28:47;;;;;;;5.12;2.70;;;;;;;27.03;100.00;100016.22;1695292;82;21499;-63
2022/06/27 05:31:13;;;;;;;6.95;2.52;;;;;;;27.45;100.00;100017.50;1685603;83;21027;-63
2022/06/27 05:33:40;;;;;;;5.25;3.10;;;;;;;27.70;100.00;100016.44;1743383;80;21102;-64
2022/06/27 05:36:07;;;;;;;4.53;2.60;;;;;;;27.77;100.00;100012.34;1734246;82;21043;-63
2022/06/27 05:38:33;;;;;;;4.78;2.65;;;;;;;27.90;100.00;100012.29;1684510;84;21102;-61
2022/06/27 05:41:02;;;;;;;7.45;3.10;;;;;;;27.96;100.00;100012.16;1700788;83;21421;-62
2022/06/27 05:43:30;;;;;;;5.12;2.50;;;;;;;28.20;100.00;100017.07;1694541;83;21137;-61
2022/06/27 05:45:57;;;;;;;3.47;2.40;;;;;;;28.60;100.00;100014.27;1694214;83;21094;-61
2022/06/27 05:48:27;;;;;;;5.35;3.00;;;;;;;28.84;100.00;100020.71;1695536;82;21102;-61
2022/06/27 05:51:12;;;;;;;3.77;2.85;;;;;;;29.14;100.00;100015.76;1711162;83;20995;-61
2022/06/27 05:53:41;;;;;;;4.95;2.90;;;;;;;29.03;100.00;100023.28;1723340;83;21078;-63
2022/06/27 05:56:08;;;;;;;4.60;2.87;;;;;;;28.84;100.00;100022.11;1717360;82;20970;-62
2022/06/27 05:58:35;;;;;;;3.90;2.70;;;;;;;28.79;100.00;100016.08;1714543;83;21045;-61
2022/06/27 06:01:02;;;;;;;4.35;2.77;;;;;;;28.75;100.00;100020.24;1702318;83;20974;-62
2022/06/27 06:03:31;;;;;;;6.85;2.70;;;;;;;28.90;100.00;100023.38;1715991;83;21136;-63
2022/06/27 06:05:59;;;;;;;4.83;2.58;;;;;;;29.18;100.00;100019.17;1715934;82;21022;-62
2022/06/27 06:08:26;;;;;;;3.62;2.80;;;;;;;29.52;100.00;100016.41;1692841;85;21582;-62
2022/06/27 06:10:53;;;;;;;6.47;2.62;;;;;;;29.49;100.00;100017.20;1715793;83;21036;-62
2022/06/27 06:13:22;;;;;;;3.80;2.85;;;;;;;29.51;100.00;100028.84;1722475;83;21406;-65
2022/06/27 06:15:49;;;;;;;5.75;3.52;;;;;;;29.14;100.00;100017.75;1720778;82;21043;-65
2022/06/27 06:18:17;;;;;;;5.15;2.98;;;;;;;28.98;100.00;100025.66;1707586;83;21144;-65
2022/06/27 06:20:45;;;;;;;4.25;3.00;;;;;;;28.73;100.00;100027.44;1722972;82;21012;-64
2022/06/27 06:23:12;;;;;;;6.87;3.10;;;;;;;28.41;100.00;100022.27;1723547;83;21042;-64
2022/06/27 06:25:41;;;;;;;4.85;3.50;;;;;;;28.34;100.00;100025.62;1712842;82;21001;-65
2022/06/27 06:28:07;;;;;;;4.72;3.30;;;;;;;28.60;100.00;100022.66;1718643;82;21047;-64
2022/06/27 06:30:35;;;;;;;6.75;3.40;;;;;;;28.76;100.00;100027.47;1722450;83;20926;-63
2022/06/27 06:33:08;;;;;;;4.35;3.22;;;;;;;28.80;100.00;100027.50;1705097;83;21053;-64
2022/06/27 06:35:37;;;;;;;6.83;3.40;;;;;;;28.77;100.00;100026.25;1723649;83;21418;-65
2022/06/27 06:38:05;;;;;;;5.62;3.10;;;;;;;28.86;100.00;100021.14;1722642;82;21000;-66
2022/06/27 06:40:32;;;;;;;6.40;3.40;;;;;;;28.99;100.00;100022.44;1719843;82;21025;-65
2022/06/27 06:43:01;;;;;;;5.17;3.30;;;;;;;29.15;100.00;100006.16;1692755;85;21577;-64
2022/06/27 06:45:39;;;;;;;4.67;2.83;;;;;;;29.22;100.00;100006.80;1625328;87;21036;-66
2022/06/27 06:48:16;;;;;;;7.50;2.90;;;;;;;29.39;100.00;100004.73;1721437;82;21123;-65
2022/06/27 06:50:43;;;;;;;5.37;2.67;;;;;;;29.33;100.00;100002.11;1723658;83;21013;-65
2022/06/27 06:53:09;;;;;;;5.40;2.60;;;;;;;29.56;100.00;100001.81;1722793;83;21104;-66
2022/06/27 06:55:36;;;;;;;4.37;2.42;;;;;;;29.91;100.00;100010.42;1722932;83;21473;-66
2022/06/27 06:58:03;;;;;;;3.35;2.65;;;;;;;30.17;100.00;100006.51;1726751;82;21055;-66
2022/06/27 07:00:29;;;;;;;4.37;2.20;;;;;;;30.51;100.00;100011.20;1697684;83;21120;-66
2022/06/27 07:02:57;;;;;;;6.00;2.27;;;;;;;30.68;100.00;100020.88;1722371;83;21054;-66
2022/06/27 07:05:25;;;;;;;4.55;2.20;;;;;;;30.78;98.39;100013.86;1723023;83;21042;-65
2022/06/27 07:07:52;;;;;;;4.50;2.00;;;;;;;30.81;96.97;100015.86;1722852;83;21087;-68
2022/06/27 07:10:19;;;;;;;3.92;1.90;;;;;;;30.79;97.83;100019.66;1722978;83;21039;-65
2022/06/27 07:12:46;;;;;;;3.10;2.00;;;;;;;30.77;95.09;100019.27;1722751;82;21062;-65
2022/06/27 07:15:13;;;;;;;3.80;1.70;;;;;;;30.67;91.49;100019.27;1720577;82;21039;-66
2022/06/27 07:17:48;;;;;;;2.12;1.40;;;;;;;30.72;97.09;100017.45;1708544;82;21141;-65
2022/06/27 07:20:18;;;;;;;3.17;1.50;;;;;;;30.93;86.92;100019.66;1719982;83;21101;-67
2022/06/27 07:22:46;;;;;;;3.67;1.60;;;;;;;30.87;85.42;100017.66;1725722;82;21013;-67
2022/06/27 07:25:12;;;;;;;2.60;1.80;;;;;;;30.76;87.51;100019.06;1682436;84;21031;-66
2022/06/27 07:27:40;;;;;;;2.52;1.70;;;;;;;30.73;89.94;100020.47;1710711;83;21102;-67
2022/06/27 07:30:11;;;;;;;3.10;1.52;;;;;;;30.71;89.17;100015.86;1712459;82;21616;-66
2022/06/27 07:32:39;;;;;;;2.52;1.80;;;;;;;30.77;88.41;100017.87;1705344;82;21026;-68
2022/06/27 07:35:11;;;;;;;5.25;1.90;;;;;;;30.79;92.58;100019.66;1727126;82;21004;-61
2022/06/27 07:37:47;;;;;;;3.42;1.70;;;;;;;31.06;91.71;100012.48;1716858;83;20967;-63
2022/06/27 07:40:12;;;;;;;3.37;1.50;;;;;;;31.36;88.05;100014.83;1722943;83;21475;-63
2022/06/27 07:42:40;;;;;;;4.00;1.65;;;;;;;31.77;81.05;100025.00;1722244;83;20956;-62
2022/06/27 07:45:08;;;;;;;4.08;1.62;;;;;;;31.89;75.99;100022.32;1694519;83;21437;-63
2022/06/27 07:47:35;;;;;;;2.30;1.42;;;;;;;32.07;73.27;100018.86;1708749;82;21026;-63
2022/06/27 07:50:03;;;;;;;3.65;1.57;;;;;;;32.10;69.87;100019.44;1723164;83;21588;-64
2022/06/27 07:53:11;;;;;;;1.95;1.40;;;;;;;32.00;67.99;100021.07;1694192;85;21038;-63
2022/06/27 07:54:58;;;;;;;2.17;1.45;;;;;;;31.97;72.75;100018.27;1696211;82;21063;-64
2022/06/27 07:57:24;;;;;;;4.65;1.60;;;;;;;32.26;75.43;100023.19;1732942;82;21567;-66
2022/06/27 07:59:54;;;;;;;3.15;1.47;;;;;;;32.42;71.92;100017.84;1741635;81;21043;-65
2022/06/27 08:02:21;;;;;;;4.53;1.80;;;;;;;32.49;70.25;100020.02;1723369;83;21095;-65
2022/06/27 08:04:48;;;;;;;5.33;1.60;;;;;;;32.56;67.41;100017.14;1711478;82;21095;-64
2022/06/27 08:07:15;;;;;;;4.42;1.32;;;;;;;32.62;62.58;100023.19;1722093;83;21032;-64
2022/06/27 08:09:43;;;;;;;3.52;1.52;;;;;;;32.43;63.97;100016.03;1730008;83;21060;-64
2022/06/27 08:12:10;;;;;;;2.47;1.50;;;;;;;32.50;63.14;100027.27;1720244;82;21364;-65
2022/06/27 08:14:37;;;;;;;5.55;1.50;;;;;;;32.28;63.87;100015.12;1671370;83;21231;-64
2022/06/27 08:17:04;;;;;;;3.62;1.50;;;;;;;32.32;66.93;100020.93;1722063;83;21028;-64
2022/06/27 08:19:32;;;;;;;2.58;1.70;;;;;;;32.75;69.52;100020.06;1722715;82;21042;-64
2022/06/27 08:21:59;;;;;;;3.98;2.00;;;;;;;33.01;61.05;100020.06;1700406;83;21021;-65
2022/06/27 08:24:26;;;;;;;2.75;1.60;;;;;;;33.21;59.95;100022.52;1709216;83;21078;-63
2022/06/27 08:26:53;;;;;;;3.62;1.77;;;;;;;33.01;58.18;100023.69;1723141;83;21080;-62
2022/06/27 08:29:20;;;;;;;2.72;1.52;;;;;;;32.87;59.51;100018.17;1702955;83;21103;-62
2022/06/27 08:31:48;;;;;;;5.00;1.55;;;;;;;32.82;64.71;100012.96;1721312;82;21046;-63
2022/06/27 08:34:16;;;;;;;7.53;1.67;;;;;;;32.86;62.27;100021.39;1715290;83;21146;-61
2022/06/27 08:36:44;;;;;;;3.75;1.42;;;;;;;32.63;65.76;100021.18;1704947;82;21566;-63
2022/06/27 08:39:11;;;;;;;4.08;1.42;;;;;;;32.67;60.21;100018.51;1723214;82;21064;-62
2022/06/27 08:41:38;;;;;;;3.95;2.12;;;;;;;32.71;55.08;100007.20;1726781;82;21060;-61
2022/06/27 08:44:06;;;;;;;3.00;1.47;;;;;;;32.76;55.57;100011.00;1727885;82;21098;-61
2022/06/27 08:46:33;;;;;;;3.05;1.42;;;;;;;32.81;54.71;100015.58;1730241;82;21040;-62
2022/06/27 08:48:59;;;;;;;2.65;1.70;;;;;;;32.70;55.89;100004.99;1744366;81;21051;-62
2022/06/27 08:53:54;;;;;;;3.90;1.62;;;;;;;32.10;59.38;100008.17;1785304;79;22996;-63
2022/06/27 08:56:22;;;;;;;4.83;1.80;;;;;;;31.80;60.33;100022.78;1749293;82;20987;-62
2022/06/27 08:58:50;;;;;;;2.58;1.40;;;;;;;31.68;61.36;100014.77;1751947;82;21114;-63
2022/06/27 09:01:22;;;;;;;3.22;1.82;;;;;;;31.66;64.26;100009.36;1744188;82;21085;-63
2022/06/27 09:03:58;;;;;;;3.90;1.75;;;;;;;31.73;66.66;100015.77;1750757;82;21039;-63
2022/06/27 09:06:27;;;;;;;5.05;2.12;;;;;;;31.79;62.15;100014.73;1733354;82;20991;-63
2022/06/27 09:09:06;;;;;;;5.78;2.35;;;;;;;31.66;61.44;100017.20;1722101;83;21007;-63
2022/06/27 09:11:38;;;;;;;4.83;1.90;;;;;;;31.36;61.92;100012.61;1740231;82;21515;-63
2022/06/27 09:14:06;;;;;;;3.27;2.10;;;;;;;30.89;64.46;100013.23;1728038;81;21043;-62
2022/06/27 09:16:34;;;;;;;3.80;2.10;;;;;;;30.59;69.64;100014.23;1731846;82;21415;-62
2022/06/27 09:19:01;;;;;;;6.50;2.20;;;;;;;30.56;75.40;100012.23;1735829;82;21483;-64
2022/06/27 09:21:28;;;;;;;4.33;2.25;;;;;;;30.59;74.24;100003.00;1734591;80;20968;-66
2022/06/27 09:24:00;;;;;;;3.83;2.15;;;;;;;30.68;77.75;100006.83;1735357;82;21708;-65
2022/06/27 09:26:39;;;;;;;5.85;2.00;;;;;;;30.70;76.42;99991.17;1738196;82;21495;-66
2022/06/27 09:29:16;;;;;;;3.47;2.30;;;;;;;30.61;72.90;99997.17;1723848;82;21046;-64
2022/06/27 09:31:45;;;;;;;3.90;2.40;;;;;;;30.62;71.40;100007.81;1726940;82;21554;-65
2022/06/27 09:34:26;;;;;;;5.97;2.17;;;;;;;30.45;73.13;100006.59;1675018;85;21074;-66
2022/06/27 09:36:59;;;;;;;3.20;2.05;;;;;;;30.16;77.77;99996.47;1686598;84;21043;-65
2022/06/27 09:39:32;;;;;;;4.20;2.60;;;;;;;29.80;81.63;99996.11;1696709;84;21090;-65
2022/06/27 09:42:07;;;;;;;3.62;2.40;;;;;;;29.51;84.67;99995.97;1711085;82;20976;-65
2022/06/27 09:44:38;;;;;;;4.20;2.60;;;;;;;29.39;89.94;99994.92;1686840;84;21068;-65
2022/06/27 09:47:17;;;;;;;3.08;2.47;;;;;;;29.46;94.02;100011.79;1703013;82;20987;-68
2022/06/27 09:49:48;;;;;;;4.33;2.45;;;;;;;29.51;94.51;99986.16;1684966;82;21122;-62
2022/06/27 09:52:17;;;;;;;3.08;2.33;;;;;;;29.58;99.35;99985.41;1689102;83;21051;-62
2022/06/27 09:54:47;;;;;;;5.35;2.42;;;;;;;29.71;97.69;99981.05;1659640;85;21563;-63
2022/06/27 09:57:14;;;;;;;5.75;2.35;;;;;;;29.84;92.69;99978.69;1661584;85;20992;-65
2022/06/27 09:59:42;;;;;;;5.62;2.70;;;;;;;30.03;92.79;99976.99;1682385;85;21546;-64
2022/06/27 10:02:09;;;;;;;5.33;2.30;;;;;;;30.30;92.75;99970.42;1670021;85;21638;-64
2022/06/27 10:04:37;;;;;;;4.70;2.35;;;;;;;30.38;84.71;99971.45;1681691;85;21100;-64
2022/06/27 10:07:07;;;;;;;4.75;2.17;;;;;;;30.26;88.79;99976.63;1689809;85;21571;-65
2022/06/27 10:09:36;;;;;;;5.58;2.45;;;;;;;30.11;87.94;99978.63;1671103;85;21632;-64
2022/06/27 10:12:36;;;;;;;4.78;2.70;;;;;;;29.98;88.32;99976.77;1667544;85;21019;-64
2022/06/27 10:15:19;;;;;;;4.08;2.42;;;;;;;29.97;85.04;99969.54;1678538;85;21055;-64
2022/06/27 10:17:50;;;;;;;5.53;2.45;;;;;;;29.93;85.38;99956.13;1674159;85;21059;-64
2022/06/27 10:20:36;;;;;;;3.67;2.30;;;;;;;30.04;88.21;99960.36;1676967;85;21031;-66
2022/06/27 10:23:26;;;;;;;4.28;2.10;;;;;;;30.23;90.58;99959.17;1681920;85;21111;-64
2022/06/27 10:25:52;;;;;;;3.87;2.12;;;;;;;30.37;81.11;99963.41;1669227;84;21078;-65
2022/06/27 10:28:20;;;;;;;4.97;2.20;;;;;;;30.40;78.17;99963.41;1682074;85;21593;-65
2022/06/27 10:30:56;;;;;;;3.35;2.30;;;;;;;30.36;72.44;99967.44;1681384;85;21087;-65
2022/06/27 10:33:28;;;;;;;4.47;2.25;;;;;;;30.18;72.23;99961.80;1683280;85;21067;-64
2022/06/27 10:38:49;;;;;;;4.05;1.92;;;;;;;30.12;71.80;99965.58;1678651;85;21170;-64
2022/06/27 10:41:24;;;;;;;4.35;1.90;;;;;;;29.94;74.90;99968.94;1683764;85;21459;-64
2022/06/27 10:43:53;;;;;;;5.60;2.10;;;;;;;29.72;77.14;99963.63;1670180;85;21070;-64
2022/06/27 10:46:25;;;;;;;4.60;1.90;;;;;;;29.62;79.79;99967.38;1668479;85;21359;-64
2022/06/27 10:48:54;;;;;;;3.70;2.02;;;;;;;29.65;80.87;99960.98;1680536;85;21626;-63
2022/06/27 10:51:29;;;;;;;4.20;1.95;;;;;;;29.80;81.54;99968.86;1681785;85;21546;-63
2022/06/27 10:54:07;;;;;;;4.17;1.82;;;;;;;30.03;75.54;99951.13;1687218;83;21063;-64
2022/06/27 10:56:50;;;;;;;3.98;2.35;;;;;;;30.18;74.28;99949.76;1695484;84;21007;-62
2022/06/27 10:59:22;;;;;;;2.40;1.87;;;;;;;30.37;71.37;99942.34;1684258;84;21083;-64
2022/06/27 11:02:05;;;;;;;3.72;1.95;;;;;;;30.62;77.87;99943.20;1631278;86;20950;-64
2022/06/27 11:04:36;;;;;;;5.30;2.08;;;;;;;30.71;71.77;99946.42;1637078;86;21684;-62
2022/06/27 11:07:08;;;;;;;6.67;2.22;;;;;;;30.59;66.01;99946.81;1637164;86;21071;-62
2022/06/27 11:09:44;;;;;;;3.22;2.00;;;;;;;30.50;67.55;99940.17;1635833;88;21451;-61
2022/06/27 11:12:13;;;;;;;3.87;1.90;;;;;;;30.55;67.89;99944.59;1637245;86;21105;-63
2022/06/27 11:14:53;;;;;;;3.55;2.17;;;;;;;30.67;66.58;99930.76;1672305;86;21088;-65
2022/06/27 11:21:03;;;;;;;2.42;2.05;;;;;;;30.61;63.92;99942.39;1796515;79;22847;-63
2022/06/27 11:23:30;;;;;;;4.95;1.90;;;;;;;30.29;61.58;99942.94;1716032;82;21165;-64
2022/06/27 11:25:57;;;;;;;4.10;2.10;;;;;;;29.97;62.18;99940.07;1725293;83;21035;-62
2022/06/27 11:33:53;;;;;;;3.17;2.10;;;;;;;29.69;69.96;99945.56;1689526;83;21050;-64
2022/06/27 11:36:20;;;;;;;4.10;2.15;;;;;;;30.01;70.37;99945.69;1728573;82;21653;-63
2022/06/27 11:38:48;;;;;;;5.42;2.35;;;;;;;30.23;66.82;99938.12;1712122;83;21133;-64
2022/06/27 11:41:16;;;;;;;4.45;2.20;;;;;;;30.24;66.74;99931.31;1718397;83;21051;-62
2022/06/27 11:43:51;;;;;;;4.05;2.20;;;;;;;30.32;67.10;99935.14;1724352;82;21050;-63
2022/06/27 11:46:27;;;;;;;4.97;2.20;;;;;;;30.53;68.00;99934.38;1705940;81;21490;-64
2022/06/27 11:49:07;;;;;;;3.42;2.02;;;;;;;30.71;62.66;99918.32;1708947;83;21042;-63